Time;durP1;ratioP1;P1;durP2;ratioP2;P2;SDS_P1;SDS_P2;PMS_P1;PMS_P2;Temp;Humidity;BMP_temperature;BMP_pressure;BME280_temperature;BME280_humidity;BME280_pressure;Samples;Min_cycle;Max_cycle;Signal;HPM_P1;HPM_P2
2022/03/06 00:00:43;;;;;;;;;;;-1.60;99.90;;;;;;5070548;28;19966;-72
2022/03/06 00:03:10;;;;;;;;;;;-1.70;99.90;;;;;;5070554;28;20370;-73
2022/03/06 00:05:39;;;;;;;;;;;-1.80;99.90;;;;;;5071316;28;19925;-73
2022/03/06 00:08:06;;;;;;;;;;;-1.80;99.90;;;;;;5070880;28;20015;-73
2022/03/06 00:10:38;;;;;;;;;;;-1.90;99.90;;;;;;5084478;28;20007;-73
2022/03/06 00:13:07;;;;;;;;;;;-1.90;99.90;;;;;;5070566;28;20004;-73
2022/03/06 00:15:34;;;;;;;;;;;-1.90;99.90;;;;;;5071276;28;19925;-73
2022/03/06 00:18:01;;;;;;;;;;;-2.00;99.90;;;;;;5082696;28;19924;-73
2022/03/06 00:20:28;;;;;;;;;;;-2.10;99.90;;;;;;5069921;28;20673;-72
2022/03/06 00:22:57;;;;;;;;;;;-2.20;99.90;;;;;;5076805;28;20876;-73
2022/03/06 00:25:24;;;;;;;;;;;-2.30;99.90;;;;;;5078375;28;20019;-72
2022/03/06 00:27:51;;;;;;;;;;;-2.40;99.90;;;;;;5069560;28;19925;-72
2022/03/06 00:30:17;;;;;;;;;;;-2.50;99.90;;;;;;5085019;28;19971;-72
2022/03/06 00:32:44;;;;;;;;;;;-2.50;99.90;;;;;;5070637;28;19931;-72
2022/03/06 00:35:11;;;;;;;;;;;-2.50;99.90;;;;;;5070955;28;20375;-72
2022/03/06 00:37:40;;;;;;;;;;;-2.60;99.90;;;;;;5070254;28;20019;-72
2022/03/06 00:40:08;;;;;;;;;;;-2.60;99.90;;;;;;5070368;28;20058;-72
2022/03/06 00:42:35;;;;;;;;;;;-2.60;99.90;;;;;;5078620;28;20007;-72
2022/03/06 00:45:03;;;;;;;;;;;-2.60;99.90;;;;;;5070619;28;19964;-72
2022/03/06 00:47:30;;;;;;;;;;;-2.60;99.90;;;;;;5069461;28;20012;-72
2022/03/06 00:49:59;;;;;;;;;;;-2.60;99.90;;;;;;5088385;28;20198;-72
2022/03/06 00:52:26;;;;;;;;;;;-2.50;99.90;;;;;;5080167;28;19930;-72
2022/03/06 00:54:55;;;;;;;;;;;-2.50;99.90;;;;;;5070058;28;20023;-72
2022/03/06 00:57:22;;;;;;;;;;;-2.50;99.90;;;;;;5082255;28;20342;-71
2022/03/06 00:59:51;;;;;;;;;;;-2.50;99.90;;;;;;5083741;28;19931;-71
2022/03/06 01:02:18;;;;;;;;;;;-2.40;99.90;;;;;;5085786;28;19967;-71
2022/03/06 01:04:45;;;;;;;;;;;-2.30;99.90;;;;;;5086156;28;19963;-71
2022/03/06 01:07:12;;;;;;;;;;;-2.20;99.90;;;;;;5086703;28;20287;-71
2022/03/06 01:09:38;;;;;;;;;;;-2.20;99.90;;;;;;5081523;28;19924;-71
2022/03/06 01:12:08;;;;;;;;;;;-2.10;99.90;;;;;;5087572;28;19950;-71
2022/03/06 01:14:35;;;;;;;;;;;-2.00;99.90;;;;;;5082690;28;20018;-71
2022/03/06 01:17:02;;;;;;;;;;;-1.90;99.90;;;;;;5085362;28;19950;-71
2022/03/06 01:19:29;;;;;;;;;;;-1.90;99.90;;;;;;5073769;28;19924;-71
2022/03/06 01:21:58;;;;;;;;;;;-1.90;99.90;;;;;;5088253;28;19947;-71
2022/03/06 01:24:25;;;;;;;;;;;-1.90;99.90;;;;;;5092351;28;19935;-71
2022/03/06 01:26:52;;;;;;;;;;;-1.80;99.90;;;;;;5085350;28;19967;-72
2022/03/06 01:29:18;;;;;;;;;;;-1.80;99.90;;;;;;5090504;28;19931;-71
2022/03/06 01:31:48;;;;;;;;;;;-1.80;99.90;;;;;;5092368;28;19924;-72
2022/03/06 01:34:15;;;;;;;;;;;-1.70;99.90;;;;;;5081974;28;20019;-71
2022/03/06 01:36:42;;;;;;;;;;;-1.70;99.90;;;;;;5077100;28;19955;-71
2022/03/06 01:39:08;;;;;;;;;;;-1.50;99.90;;;;;;5092221;28;19936;-71
2022/03/06 01:41:38;;;;;;;;;;;-1.50;99.90;;;;;;5091678;28;19928;-71
2022/03/06 01:44:10;;;;;;;;;;;-1.40;99.90;;;;;;5075276;28;19928;-72
2022/03/06 01:46:39;;;;;;;;;;;-1.40;99.90;;;;;;5078178;28;19931;-71
2022/03/06 01:49:08;;;;;;;;;;;-1.50;99.90;;;;;;5090632;28;19924;-72
2022/03/06 01:51:35;;;;;;;;;;;-1.40;99.90;;;;;;5091667;28;20011;-71
2022/03/06 01:54:04;;;;;;;;;;;-1.30;99.90;;;;;;5091684;28;19924;-71
2022/03/06 01:56:31;;;;;;;;;;;-1.20;99.90;;;;;;5091416;28;20030;-71
2022/03/06 01:59:00;;;;;;;;;;;-1.20;99.90;;;;;;5089014;28;19931;-71
2022/03/06 02:01:26;;;;;;;;;;;-1.10;99.90;;;;;;5079536;28;19967;-71
2022/03/06 02:03:53;;;;;;;;;;;-1.10;99.90;;;;;;5072911;28;19924;-71
2022/03/06 02:06:24;;;;;;;;;;;-1.20;99.90;;;;;;5083838;28;19930;-71
2022/03/06 02:08:50;;;;;;;;;;;-1.30;99.90;;;;;;5084449;28;20003;-71
2022/03/06 02:11:18;;;;;;;;;;;-1.40;99.90;;;;;;5076037;28;20725;-71
2022/03/06 02:13:44;;;;;;;;;;;-1.50;99.90;;;;;;5092015;28;20337;-71
2022/03/06 02:16:11;;;;;;;;;;;-1.50;99.90;;;;;;5079879;28;19924;-71
2022/03/06 02:18:38;;;;;;;;;;;-1.60;99.90;;;;;;5080918;28;19924;-71
2022/03/06 02:21:09;;;;;;;;;;;-1.70;99.90;;;;;;5091253;28;19967;-71
2022/03/06 02:23:36;;;;;;;;;;;-1.70;99.90;;;;;;5089804;28;19963;-71
2022/03/06 02:26:03;;;;;;;;;;;-1.80;99.90;;;;;;5086085;28;19924;-71
2022/03/06 02:28:30;;;;;;;;;;;-1.90;99.90;;;;;;5080442;28;20462;-71
2022/03/06 02:30:59;;;;;;;;;;;-2.00;99.90;;;;;;5089569;28;19924;-71
2022/03/06 02:33:26;;;;;;;;;;;-2.10;99.90;;;;;;5084047;28;19925;-71
2022/03/06 02:35:53;;;;;;;;;;;-2.20;99.90;;;;;;5085637;28;20011;-71
2022/03/06 02:38:19;;;;;;;;;;;-2.30;99.90;;;;;;5071445;28;20031;-71
2022/03/06 02:40:46;;;;;;;;;;;-2.40;99.90;;;;;;5072155;28;19925;-71
2022/03/06 02:43:14;;;;;;;;;;;-2.40;99.90;;;;;;5087157;28;19924;-71
2022/03/06 02:45:41;;;;;;;;;;;-2.50;99.90;;;;;;5071819;28;19924;-71
2022/03/06 02:48:08;;;;;;;;;;;-2.70;99.90;;;;;;5073195;28;20019;-71
2022/03/06 02:50:35;;;;;;;;;;;-2.70;99.90;;;;;;5090441;28;20015;-71
2022/03/06 02:53:14;;;;;;;;;;;-2.70;99.90;;;;;;5090727;28;19963;-70
2022/03/06 02:55:42;;;;;;;;;;;-2.60;99.90;;;;;;5087329;28;20018;-70
2022/03/06 02:58:09;;;;;;;;;;;-2.70;99.90;;;;;;5070470;28;19956;-70
2022/03/06 03:00:36;;;;;;;;;;;-2.80;99.90;;;;;;5071433;28;19928;-70
2022/03/06 03:03:03;;;;;;;;;;;-2.90;99.90;;;;;;5079477;28;19924;-70
2022/03/06 03:05:29;;;;;;;;;;;-2.90;99.90;;;;;;5078748;28;19924;-70
2022/03/06 03:07:59;;;;;;;;;;;-2.90;99.90;;;;;;5069496;28;19925;-70
2022/03/06 03:10:26;;;;;;;;;;;-2.80;99.90;;;;;;5070538;28;19931;-70
2022/03/06 03:12:55;;;;;;;;;;;-2.80;99.90;;;;;;5071320;28;20283;-70
2022/03/06 03:15:22;;;;;;;;;;;-2.80;99.90;;;;;;5089409;28;19924;-70
2022/03/06 03:17:49;;;;;;;;;;;-2.90;99.90;;;;;;5089695;28;19928;-70
2022/03/06 03:20:16;;;;;;;;;;;-2.90;99.90;;;;;;5081469;28;19963;-70
2022/03/06 03:22:43;;;;;;;;;;;-2.90;99.90;;;;;;5074212;28;19930;-70
2022/03/06 03:25:10;;;;;;;;;;;-2.90;99.90;;;;;;5076985;28;20019;-70
2022/03/06 03:27:37;;;;;;;;;;;-2.90;99.90;;;;;;5071365;28;19952;-69
2022/03/06 03:30:05;;;;;;;;;;;-2.90;99.90;;;;;;5076782;28;20010;-70
2022/03/06 03:32:37;;;;;;;;;;;-2.90;99.90;;;;;;5080032;28;19924;-70
2022/03/06 03:35:04;;;;;;;;;;;-2.80;99.90;;;;;;5085616;28;19924;-70
2022/03/06 03:37:33;;;;;;;;;;;-2.80;99.90;;;;;;5085523;28;20014;-70
2022/03/06 03:40:04;;;;;;;;;;;-2.70;99.90;;;;;;5084881;28;19924;-69
2022/03/06 03:42:30;;;;;;;;;;;-2.60;99.90;;;;;;5071126;28;19954;-69
2022/03/06 03:44:57;;;;;;;;;;;-2.60;99.90;;;;;;5070948;28;20620;-70
2022/03/06 03:47:24;;;;;;;;;;;-2.60;99.90;;;;;;5085518;28;19925;-70
2022/03/06 03:49:50;;;;;;;;;;;-2.50;99.90;;;;;;5071273;28;19952;-69
2022/03/06 03:52:20;;;;;;;;;;;-2.50;99.90;;;;;;5071007;28;19931;-70
2022/03/06 03:54:50;;;;;;;;;;;-2.50;99.90;;;;;;5083461;28;19928;-69
2022/03/06 03:57:18;;;;;;;;;;;-2.50;99.90;;;;;;5086062;28;20298;-69
2022/03/06 03:59:45;;;;;;;;;;;-2.50;99.90;;;;;;5076985;28;19935;-69
2022/03/06 04:02:14;;;;;;;;;;;-2.50;99.90;;;;;;5088126;28;19931;-70
2022/03/06 04:04:43;;;;;;;;;;;-2.50;99.90;;;;;;5077434;28;19924;-69
2022/03/06 04:07:10;;;;;;;;;;;-2.60;99.90;;;;;;5071123;28;20438;-70
2022/03/06 04:09:37;;;;;;;;;;;-2.60;99.90;;;;;;5085081;28;20334;-70
2022/03/06 04:12:03;;;;;;;;;;;-2.60;99.90;;;;;;5080210;28;19924;-69
2022/03/06 04:14:30;;;;;;;;;;;-2.50;99.90;;;;;;5079916;28;19931;-69
2022/03/06 04:16:57;;;;;;;;;;;-2.40;99.90;;;;;;5084189;28;19935;-70
2022/03/06 04:19:23;;;;;;;;;;;-2.40;99.90;;;;;;5081676;28;19947;-70
2022/03/06 04:21:50;;;;;;;;;;;-2.50;99.90;;;;;;5070885;28;19930;-69
2022/03/06 04:24:17;;;;;;;;;;;-2.60;99.90;;;;;;5083422;28;19959;-69
2022/03/06 04:26:43;;;;;;;;;;;-2.60;99.90;;;;;;5072314;28;19931;-69
2022/03/06 04:29:10;;;;;;;;;;;-2.70;99.90;;;;;;5070991;28;19924;-69
2022/03/06 04:31:39;;;;;;;;;;;-2.80;99.90;;;;;;5082556;28;19967;-69
2022/03/06 04:34:08;;;;;;;;;;;-2.80;99.90;;;;;;5078926;28;19979;-69
2022/03/06 04:36:35;;;;;;;;;;;-2.90;99.90;;;;;;5073773;28;19986;-69
2022/03/06 04:39:03;;;;;;;;;;;-2.90;99.90;;;;;;5074421;28;20397;-69
2022/03/06 04:41:32;;;;;;;;;;;-3.00;99.90;;;;;;5074776;28;20019;-70
2022/03/06 04:43:59;;;;;;;;;;;-3.20;99.90;;;;;;5074249;28;19931;-70
2022/03/06 04:46:26;;;;;;;;;;;-3.30;99.90;;;;;;5073987;28;20017;-70
2022/03/06 04:48:55;;;;;;;;;;;-3.30;99.90;;;;;;5073609;28;19932;-70
2022/03/06 04:51:21;;;;;;;;;;;-3.40;99.90;;;;;;5074619;28;20015;-70
2022/03/06 04:53:50;;;;;;;;;;;-3.50;99.90;;;;;;5091141;28;19934;-70
2022/03/06 04:56:17;;;;;;;;;;;-3.60;99.90;;;;;;5093297;28;19925;-69
2022/03/06 04:58:43;;;;;;;;;;;-3.70;99.90;;;;;;5081261;28;19931;-70
2022/03/06 05:01:10;;;;;;;;;;;-3.70;99.90;;;;;;5073182;28;20501;-70
2022/03/06 05:03:37;;;;;;;;;;;-3.70;99.90;;;;;;5074274;28;19951;-70
2022/03/06 05:06:04;;;;;;;;;;;-3.70;99.90;;;;;;5080953;28;20019;-69
2022/03/06 05:08:31;;;;;;;;;;;-3.70;99.90;;;;;;5086509;28;19924;-69
2022/03/06 05:10:57;;;;;;;;;;;-3.60;99.90;;;;;;5075760;28;20024;-70
2022/03/06 05:13:24;;;;;;;;;;;-3.40;99.90;;;;;;5074062;28;20003;-70
2022/03/06 05:15:51;;;;;;;;;;;-3.20;99.90;;;;;;5073995;28;19978;-69
2022/03/06 05:18:18;;;;;;;;;;;-3.30;99.90;;;;;;5091994;28;20018;-70
2022/03/06 05:20:45;;;;;;;;;;;-3.20;99.90;;;;;;5090493;28;19928;-70
2022/03/06 05:23:12;;;;;;;;;;;-3.30;99.90;;;;;;5073433;28;19971;-69
2022/03/06 05:25:41;;;;;;;;;;;-3.30;99.90;;;;;;5077538;28;19950;-69
2022/03/06 05:28:08;;;;;;;;;;;-3.20;99.90;;;;;;5072780;28;20399;-70
2022/03/06 05:30:34;;;;;;;;;;;-3.10;99.90;;;;;;5082020;28;19924;-71
2022/03/06 05:33:02;;;;;;;;;;;-3.00;99.90;;;;;;5092434;28;20007;-71
2022/03/06 05:35:31;;;;;;;;;;;-2.80;99.90;;;;;;5090169;28;20019;-71
2022/03/06 05:37:58;;;;;;;;;;;-2.70;99.90;;;;;;5090234;28;19938;-71
2022/03/06 05:40:27;;;;;;;;;;;-2.50;99.90;;;;;;5079632;28;19924;-70
2022/03/06 05:42:54;;;;;;;;;;;-2.40;99.90;;;;;;5074435;28;20054;-71
2022/03/06 05:45:20;;;;;;;;;;;-2.30;99.90;;;;;;5092435;28;19953;-71
2022/03/06 05:47:47;;;;;;;;;;;-2.20;99.90;;;;;;5075355;28;20382;-71
2022/03/06 05:50:17;;;;;;;;;;;-2.10;99.90;;;;;;5081808;28;19930;-71
2022/03/06 05:52:44;;;;;;;;;;;-2.10;99.90;;;;;;5092269;28;20003;-71
2022/03/06 05:55:10;;;;;;;;;;;-2.10;99.90;;;;;;5092005;28;19935;-71
2022/03/06 05:57:37;;;;;;;;;;;-2.00;99.90;;;;;;5076521;28;20386;-71
2022/03/06 06:00:08;;;;;;;;;;;-2.00;99.90;;;;;;5088703;28;20574;-71
2022/03/06 06:02:35;;;;;;;;;;;-2.00;99.90;;;;;;5085762;28;20007;-71
2022/03/06 06:05:06;;;;;;;;;;;-1.90;99.90;;;;;;5077463;28;20307;-71
2022/03/06 06:07:33;;;;;;;;;;;-1.90;99.90;;;;;;5091872;28;19930;-71
2022/03/06 06:09:59;;;;;;;;;;;-1.90;99.90;;;;;;5089042;28;20382;-71
2022/03/06 06:12:26;;;;;;;;;;;-1.80;99.90;;;;;;5078320;28;19927;-69
2022/03/06 06:14:53;;;;;;;;;;;-1.80;99.90;;;;;;5082353;28;19924;-71
2022/03/06 06:17:20;;;;;;;;;;;-1.70;99.90;;;;;;5071900;28;20000;-71
2022/03/06 06:19:47;;;;;;;;;;;-1.60;99.90;;;;;;5082600;28;20046;-71
2022/03/06 06:22:13;;;;;;;;;;;-1.50;99.90;;;;;;5081727;28;19967;-71
2022/03/06 06:24:40;;;;;;;;;;;-1.40;99.90;;;;;;5084808;28;19924;-71
2022/03/06 06:27:07;;;;;;;;;;;-1.30;99.90;;;;;;5081374;28;19932;-70
2022/03/06 06:29:33;;;;;;;;;;;-1.30;99.90;;;;;;5089415;28;19932;-70
2022/03/06 06:32:00;;;;;;;;;;;-1.20;99.90;;;;;;5087647;28;19924;-70
2022/03/06 06:34:27;;;;;;;;;;;-1.10;99.90;;;;;;5072541;28;20303;-69
2022/03/06 06:36:57;;;;;;;;;;;-1.00;99.90;;;;;;5071925;28;20393;-70
2022/03/06 06:39:25;;;;;;;;;;;-0.90;99.90;;;;;;5078136;28;20530;-70
2022/03/06 06:41:52;;;;;;;;;;;-0.80;99.90;;;;;;5087477;28;20436;-69
2022/03/06 06:44:19;;;;;;;;;;;-0.80;99.90;;;;;;5084800;28;19924;-69
2022/03/06 06:46:49;;;;;;;;;;;-0.70;99.90;;;;;;5073138;28;20011;-70
2022/03/06 06:49:16;;;;;;;;;;;-0.60;99.90;;;;;;5091001;28;19990;-71
2022/03/06 06:51:42;;;;;;;;;;;-0.50;99.90;;;;;;5081494;28;19930;-70
2022/03/06 06:54:09;;;;;;;;;;;-0.40;99.90;;;;;;5075836;28;20028;-69
2022/03/06 06:56:36;;;;;;;;;;;-0.40;99.90;;;;;;5081436;28;20022;-70
2022/03/06 06:59:03;;;;;;;;;;;-0.30;99.90;;;;;;5071364;28;19946;-70
2022/03/06 07:01:29;;;;;;;;;;;-0.20;99.90;;;;;;5078751;28;20305;-70
2022/03/06 07:03:56;;;;;;;;;;;-0.20;99.90;;;;;;5079227;28;19928;-71
2022/03/06 07:06:23;;;;;;;;;;;-0.10;99.90;;;;;;5080069;28;20260;-71
2022/03/06 07:08:50;;;;;;;;;;;0.00;99.90;;;;;;5089672;28;19967;-70
2022/03/06 07:11:20;;;;;;;;;;;0.00;99.90;;;;;;5090113;28;19928;-71
2022/03/06 07:13:47;;;;;;;;;;;0.10;99.90;;;;;;5075350;28;20341;-70
2022/03/06 07:16:14;;;;;;;;;;;0.30;99.90;;;;;;5084510;28;19924;-71
2022/03/06 07:18:40;;;;;;;;;;;0.40;99.90;;;;;;5089204;28;19967;-71
2022/03/06 07:21:10;;;;;;;;;;;0.60;99.90;;;;;;5090739;28;19924;-71
2022/03/06 07:23:39;;;;;;;;;;;0.70;99.90;;;;;;5089747;28;19954;-71
2022/03/06 07:26:06;;;;;;;;;;;1.00;99.90;;;;;;5087622;28;19924;-71
2022/03/06 07:28:32;;;;;;;;;;;1.60;99.90;;;;;;5087148;28;20012;-71
2022/03/06 07:30:59;;;;;;;;;;;2.60;99.90;;;;;;5083100;28;19924;-71
2022/03/06 07:33:26;;;;;;;;;;;3.40;99.90;;;;;;5071358;28;19928;-70
2022/03/06 07:35:52;;;;;;;;;;;3.80;99.90;;;;;;5071043;28;20287;-70
2022/03/06 07:38:19;;;;;;;;;;;4.60;99.90;;;;;;5071708;28;19951;-70
2022/03/06 07:40:46;;;;;;;;;;;5.30;99.90;;;;;;5073094;28;20405;-70
2022/03/06 07:43:15;;;;;;;;;;;5.70;99.90;;;;;;5071863;28;19924;-71
2022/03/06 07:45:41;;;;;;;;;;;5.70;99.90;;;;;;5071079;28;20485;-71
2022/03/06 07:48:08;;;;;;;;;;;5.40;99.90;;;;;;5072877;28;19924;-71
2022/03/06 07:50:35;;;;;;;;;;;5.10;99.90;;;;;;5082732;28;19971;-71
2022/03/06 07:53:02;;;;;;;;;;;4.80;99.90;;;;;;5072343;28;19978;-71
2022/03/06 07:55:28;;;;;;;;;;;4.50;99.90;;;;;;5088591;28;20399;-71
2022/03/06 07:57:55;;;;;;;;;;;4.50;99.90;;;;;;5089005;28;19970;-71
2022/03/06 08:00:24;;;;;;;;;;;4.60;99.90;;;;;;5071877;28;19970;-71
2022/03/06 08:02:51;;;;;;;;;;;4.60;99.90;;;;;;5069675;28;19924;-71
2022/03/06 08:05:18;;;;;;;;;;;4.40;99.90;;;;;;5070547;28;19928;-71
2022/03/06 08:07:53;;;;;;;;;;;4.40;99.90;;;;;;5079779;28;19971;-72
2022/03/06 08:10:20;;;;;;;;;;;4.80;99.90;;;;;;5089760;28;20386;-71
2022/03/06 08:12:49;;;;;;;;;;;5.30;99.90;;;;;;5071570;28;19928;-72
2022/03/06 08:15:16;;;;;;;;;;;5.50;98.90;;;;;;5070508;28;20358;-71
2022/03/06 08:17:43;;;;;;;;;;;5.50;98.90;;;;;;5070427;28;19999;-71
2022/03/06 08:20:10;;;;;;;;;;;5.50;98.80;;;;;;5081918;28;19924;-72
2022/03/06 08:22:36;;;;;;;;;;;5.60;98.90;;;;;;5087722;28;20011;-72
2022/03/06 08:25:04;;;;;;;;;;;5.90;98.70;;;;;;5070454;28;20297;-72
2022/03/06 08:27:32;;;;;;;;;;;6.30;98.30;;;;;;5070692;28;19925;-72
2022/03/06 08:29:59;;;;;;;;;;;6.70;98.00;;;;;;5080826;28;20407;-72
2022/03/06 08:32:26;;;;;;;;;;;6.80;97.80;;;;;;5087920;28;19934;-72
2022/03/06 08:34:52;;;;;;;;;;;6.90;97.10;;;;;;5070449;28;19931;-72
2022/03/06 08:37:22;;;;;;;;;;;7.20;97.30;;;;;;5070430;28;20422;-72
2022/03/06 08:39:49;;;;;;;;;;;7.50;96.80;;;;;;5084510;28;19928;-72
2022/03/06 08:42:16;;;;;;;;;;;7.80;96.60;;;;;;5076496;28;20014;-72
2022/03/06 08:44:42;;;;;;;;;;;8.10;96.20;;;;;;5087431;28;20079;-73
2022/03/06 08:47:09;;;;;;;;;;;8.20;95.30;;;;;;5070284;28;19931;-72
2022/03/06 08:49:36;;;;;;;;;;;8.30;95.00;;;;;;5069874;28;19935;-73
2022/03/06 08:52:07;;;;;;;;;;;8.40;95.30;;;;;;5077762;28;19946;-73
2022/03/06 08:54:34;;;;;;;;;;;8.00;94.80;;;;;;5070715;28;19931;-73
2022/03/06 08:57:00;;;;;;;;;;;8.20;95.00;;;;;;5084278;28;20003;-71
2022/03/06 08:59:27;;;;;;;;;;;8.10;94.60;;;;;;5089300;28;19924;-71
2022/03/06 09:01:55;;;;;;;;;;;8.20;94.90;;;;;;5087162;28;19974;-71
2022/03/06 09:04:23;;;;;;;;;;;8.10;93.50;;;;;;5070538;28;19924;-70
2022/03/06 09:06:51;;;;;;;;;;;7.70;93.50;;;;;;5069597;28;20379;-70
2022/03/06 09:09:17;;;;;;;;;;;7.90;94.20;;;;;;5088323;28;19928;-71
2022/03/06 09:11:47;;;;;;;;;;;8.00;93.40;;;;;;5080083;28;19924;-71
2022/03/06 09:14:13;;;;;;;;;;;8.20;93.50;;;;;;5082423;28;20019;-71
2022/03/06 09:16:40;;;;;;;;;;;8.40;92.60;;;;;;5085564;28;19975;-71
2022/03/06 09:19:07;;;;;;;;;;;8.40;92.50;;;;;;5072647;28;19928;-72
2022/03/06 09:21:33;;;;;;;;;;;8.60;92.50;;;;;;5080338;28;20549;-71
2022/03/06 09:24:00;;;;;;;;;;;8.70;92.40;;;;;;5078512;28;19931;-71
2022/03/06 09:26:29;;;;;;;;;;;9.20;92.30;;;;;;5072936;28;19955;-71
2022/03/06 09:29:05;;;;;;;;;;;9.20;91.50;;;;;;5082342;28;19930;-72
2022/03/06 09:31:32;;;;;;;;;;;9.50;91.40;;;;;;5086579;28;20007;-72
2022/03/06 09:33:59;;;;;;;;;;;9.50;90.40;;;;;;5088990;28;19924;-71
2022/03/06 09:36:43;;;;;;;;;;;9.50;90.00;;;;;;5086940;28;19924;-71
2022/03/06 09:39:10;;;;;;;;;;;9.10;88.50;;;;;;5081691;28;19924;-72
2022/03/06 09:41:38;;;;;;;;;;;8.70;90.00;;;;;;5073488;28;20402;-74
2022/03/06 09:44:08;;;;;;;;;;;8.40;89.80;;;;;;5073083;28;20450;-72
2022/03/06 09:46:36;;;;;;;;;;;8.30;88.90;;;;;;5086648;28;20051;-72
2022/03/06 09:49:03;;;;;;;;;;;8.20;89.00;;;;;;5072746;28;20382;-72
2022/03/06 09:51:48;;;;;;;;;;;8.10;89.30;;;;;;5073034;28;19987;-72
2022/03/06 09:54:16;;;;;;;;;;;8.60;89.60;;;;;;5073618;28;19931;-72
2022/03/06 09:56:45;;;;;;;;;;;9.40;89.00;;;;;;5086696;28;20348;-72
2022/03/06 09:59:12;;;;;;;;;;;10.00;86.60;;;;;;5087886;28;19925;-71
2022/03/06 10:01:38;;;;;;;;;;;9.50;85.40;;;;;;5073608;28;19929;-74
2022/03/06 10:04:25;;;;;;;;;;;9.00;84.90;;;;;;5077877;28;19929;-72
2022/03/06 10:07:02;;;;;;;;;;;9.30;86.50;;;;;;5073329;28;19970;-71
2022/03/06 10:09:30;;;;;;;;;;;9.60;87.00;;;;;;5087077;28;19924;-71
2022/03/06 10:11:56;;;;;;;;;;;9.90;85.00;;;;;;5073327;28;19935;-72
2022/03/06 10:14:33;;;;;;;;;;;9.70;83.90;;;;;;5078630;28;19968;-72
2022/03/06 10:17:15;;;;;;;;;;;9.30;84.20;;;;;;5090591;28;20380;-72
2022/03/06 10:19:46;;;;;;;;;;;9.80;85.20;;;;;;5089087;28;19978;-72
2022/03/06 10:22:13;;;;;;;;;;;10.60;83.80;;;;;;5091868;28;19950;-72
2022/03/06 10:24:49;;;;;;;;;;;10.90;82.00;;;;;;5079333;28;20011;-71
2022/03/06 10:27:16;;;;;;;;;;;10.30;82.90;;;;;;5073204;28;19947;-71
2022/03/06 10:29:43;;;;;;;;;;;9.70;83.40;;;;;;5071992;28;19925;-71
2022/03/06 10:32:10;;;;;;;;;;;9.10;84.60;;;;;;5072635;28;19924;-72
2022/03/06 10:34:37;;;;;;;;;;;9.20;85.10;;;;;;5079269;28;19924;-73
2022/03/06 10:37:05;;;;;;;;;;;10.00;84.50;;;;;;5086354;28;19931;-72
2022/03/06 10:39:45;;;;;;;;;;;10.60;83.50;;;;;;5071383;28;19931;-72
2022/03/06 10:42:19;;;;;;;;;;;11.60;83.20;;;;;;5076755;28;20008;-72
2022/03/06 10:44:47;;;;;;;;;;;12.30;82.10;;;;;;5090304;28;19931;-72
2022/03/06 10:47:17;;;;;;;;;;;12.10;80.70;;;;;;5076093;28;19967;-72
2022/03/06 10:50:04;;;;;;;;;;;12.40;82.20;;;;;;5071735;28;19924;-72
2022/03/06 10:52:39;;;;;;;;;;;12.40;82.80;;;;;;5086223;28;20272;-72
2022/03/06 10:55:05;;;;;;;;;;;12.90;80.70;;;;;;5072224;28;19930;-72
2022/03/06 10:57:35;;;;;;;;;;;12.90;80.40;;;;;;5087856;28;19928;-72
2022/03/06 11:00:03;;;;;;;;;;;12.70;80.70;;;;;;5081353;28;19931;-72
2022/03/06 11:02:33;;;;;;;;;;;12.30;81.30;;;;;;5082145;28;19929;-72
2022/03/06 11:05:00;;;;;;;;;;;12.40;81.40;;;;;;5078267;28;19924;-72
2022/03/06 11:07:28;;;;;;;;;;;12.90;81.40;;;;;;5069209;28;20558;-73
2022/03/06 11:09:57;;;;;;;;;;;13.20;80.20;;;;;;5070669;28;19978;-72
2022/03/06 11:12:24;;;;;;;;;;;13.20;79.50;;;;;;5071411;28;19925;-72
2022/03/06 11:14:51;;;;;;;;;;;13.60;79.40;;;;;;5077968;28;19930;-72
2022/03/06 11:17:18;;;;;;;;;;;13.90;78.80;;;;;;5080175;28;19955;-72
2022/03/06 11:19:44;;;;;;;;;;;13.90;77.70;;;;;;5083800;28;20015;-72
2022/03/06 11:22:24;;;;;;;;;;;14.30;77.90;;;;;;5085211;28;19931;-73
2022/03/06 11:24:52;;;;;;;;;;;13.90;76.30;;;;;;5082531;28;19924;-73
2022/03/06 11:27:41;;;;;;;;;;;13.70;77.90;;;;;;5073404;28;19931;-73
2022/03/06 11:30:18;;;;;;;;;;;13.10;78.00;;;;;;5083005;28;19935;-72
2022/03/06 11:32:46;;;;;;;;;;;13.00;78.80;;;;;;5090857;28;19963;-72
2022/03/06 11:35:17;;;;;;;;;;;12.60;78.50;;;;;;5090094;28;20010;-73
2022/03/06 11:37:44;;;;;;;;;;;13.40;79.00;;;;;;5088000;28;19931;-72
2022/03/06 11:40:30;;;;;;;;;;;13.40;77.00;;;;;;5075024;28;19931;-73
2022/03/06 11:42:57;;;;;;;;;;;12.60;77.30;;;;;;5071323;28;19930;-72
2022/03/06 11:45:42;;;;;;;;;;;12.20;77.60;;;;;;5083013;28;19989;-72
2022/03/06 11:48:09;;;;;;;;;;;11.80;78.00;;;;;;5085541;28;19974;-72
2022/03/06 11:50:38;;;;;;;;;;;12.20;79.10;;;;;;5078189;28;20014;-73
2022/03/06 11:53:40;;;;;;;;;;;12.40;78.70;;;;;;5087065;28;19932;-72
2022/03/06 11:56:25;;;;;;;;;;;12.30;79.00;;;;;;5079785;28;19924;-72
2022/03/06 11:58:53;;;;;;;;;;;12.20;78.70;;;;;;5080929;28;19928;-72
2022/03/06 12:01:26;;;;;;;;;;;12.60;80.10;;;;;;5071362;28;19925;-72
2022/03/06 12:04:00;;;;;;;;;;;13.10;78.40;;;;;;5085358;28;20056;-72
2022/03/06 12:06:27;;;;;;;;;;;14.40;79.00;;;;;;5077975;28;19987;-72
2022/03/06 12:08:54;;;;;;;;;;;14.50;77.60;;;;;;5070833;28;20015;-74
2022/03/06 12:11:23;;;;;;;;;;;14.00;78.10;;;;;;5070543;28;19928;-74
2022/03/06 12:13:50;;;;;;;;;;;13.80;78.10;;;;;;5070852;28;20339;-74
2022/03/06 12:16:17;;;;;;;;;;;13.50;79.20;;;;;;5083038;28;19989;-72
2022/03/06 12:19:03;;;;;;;;;;;13.60;79.10;;;;;;5082838;28;20419;-72
2022/03/06 12:21:36;;;;;;;;;;;13.10;78.50;;;;;;5070711;28;19925;-74
2022/03/06 12:24:09;;;;;;;;;;;11.70;78.80;;;;;;5071452;28;20007;-74
2022/03/06 12:26:41;;;;;;;;;;;10.10;80.90;;;;;;5087128;28;20022;-74
2022/03/06 12:29:08;;;;;;;;;;;9.00;83.10;;;;;;5089654;28;19931;-74
2022/03/06 12:31:35;;;;;;;;;;;8.50;85.00;;;;;;5089140;28;20346;-74
2022/03/06 12:34:22;;;;;;;;;;;8.20;85.30;;;;;;5074848;28;19978;-74
2022/03/06 12:36:55;;;;;;;;;;;8.80;86.10;;;;;;5075973;28;19932;-74
2022/03/06 12:39:22;;;;;;;;;;;9.70;85.10;;;;;;5091197;28;19924;-74
2022/03/06 12:41:53;;;;;;;;;;;10.30;83.60;;;;;;5088569;28;19924;-75
2022/03/06 12:44:23;;;;;;;;;;;10.80;83.60;;;;;;5080675;28;19924;-72
2022/03/06 12:46:50;;;;;;;;;;;11.40;82.30;;;;;;5070570;28;19925;-72
2022/03/06 12:49:23;;;;;;;;;;;11.80;81.50;;;;;;5079423;28;19936;-72
2022/03/06 12:51:50;;;;;;;;;;;12.00;81.20;;;;;;5078054;28;19947;-72
2022/03/06 12:54:19;;;;;;;;;;;12.30;81.00;;;;;;5089102;28;20540;-72
2022/03/06 12:56:46;;;;;;;;;;;12.80;80.40;;;;;;5074250;28;20381;-73
2022/03/06 12:59:17;;;;;;;;;;;12.60;79.10;;;;;;5089812;28;19950;-72
2022/03/06 13:01:45;;;;;;;;;;;13.40;79.40;;;;;;5085814;28;19934;-73
2022/03/06 13:04:16;;;;;;;;;;;13.70;78.80;;;;;;5079942;28;19993;-72
2022/03/06 13:06:42;;;;;;;;;;;13.10;79.00;;;;;;5090807;28;19924;-72
2022/03/06 13:09:18;;;;;;;;;;;13.40;78.40;;;;;;5092786;28;20042;-73
2022/03/06 13:11:49;;;;;;;;;;;13.10;79.10;;;;;;5076311;28;19931;-75
2022/03/06 13:14:16;;;;;;;;;;;12.20;79.30;;;;;;5073993;28;19967;-75
2022/03/06 13:16:43;;;;;;;;;;;11.40;80.10;;;;;;5073707;28;20011;-75
2022/03/06 13:19:10;;;;;;;;;;;10.60;80.40;;;;;;5073512;28;20025;-74
2022/03/06 13:21:37;;;;;;;;;;;10.30;81.10;;;;;;5090744;28;20006;-73
2022/03/06 13:24:05;;;;;;;;;;;10.00;81.10;;;;;;5078784;28;19925;-74
2022/03/06 13:26:32;;;;;;;;;;;10.40;81.50;;;;;;5073764;28;19966;-74
2022/03/06 13:28:59;;;;;;;;;;;11.20;81.60;;;;;;5073590;28;19928;-74
2022/03/06 13:31:39;;;;;;;;;;;11.60;80.00;;;;;;5073140;28;19947;-74
2022/03/06 13:34:07;;;;;;;;;;;12.20;79.80;;;;;;5089075;28;20023;-74
2022/03/06 13:36:34;;;;;;;;;;;12.40;79.60;;;;;;5087317;28;19924;-74
2022/03/06 13:39:06;;;;;;;;;;;12.60;79.00;;;;;;5086641;28;20474;-74
2022/03/06 13:41:33;;;;;;;;;;;13.20;79.00;;;;;;5081260;28;20003;-74
2022/03/06 13:44:00;;;;;;;;;;;13.20;77.40;;;;;;5082692;28;19928;-74
2022/03/06 13:46:27;;;;;;;;;;;13.00;77.20;;;;;;5081223;28;20007;-74
2022/03/06 13:49:06;;;;;;;;;;;13.60;78.00;;;;;;5073718;28;20015;-74
2022/03/06 13:51:33;;;;;;;;;;;13.80;77.50;;;;;;5078995;28;20416;-74
2022/03/06 13:54:01;;;;;;;;;;;14.10;76.90;;;;;;5089922;28;19924;-74
2022/03/06 13:56:35;;;;;;;;;;;14.20;76.70;;;;;;5074550;28;19966;-74
2022/03/06 13:59:03;;;;;;;;;;;13.80;77.00;;;;;;5080120;28;20020;-74
2022/03/06 14:01:33;;;;;;;;;;;13.50;77.20;;;;;;5089751;28;20457;-73
2022/03/06 14:04:01;;;;;;;;;;;13.90;77.30;;;;;;5081504;28;20023;-74
2022/03/06 14:06:41;;;;;;;;;;;14.00;77.00;;;;;;5083998;28;19958;-74
2022/03/06 14:09:17;;;;;;;;;;;13.90;76.90;;;;;;5072819;28;19924;-73
2022/03/06 14:11:51;;;;;;;;;;;14.20;76.90;;;;;;5072750;28;20480;-74
2022/03/06 14:14:18;;;;;;;;;;;14.10;76.90;;;;;;5087154;28;19971;-73
2022/03/06 14:16:44;;;;;;;;;;;13.40;77.90;;;;;;5090259;28;19999;-73
2022/03/06 14:19:17;;;;;;;;;;;12.60;76.90;;;;;;5078036;28;19924;-73
2022/03/06 14:21:45;;;;;;;;;;;11.40;78.60;;;;;;5086907;28;20426;-73
2022/03/06 14:24:12;;;;;;;;;;;10.60;78.60;;;;;;5086169;28;20007;-73
2022/03/06 14:26:47;;;;;;;;;;;10.00;80.30;;;;;;5073207;28;19993;-73
2022/03/06 14:29:13;;;;;;;;;;;10.90;80.60;;;;;;5077625;28;19924;-73